Time;durP1;ratioP1;P1;durP2;ratioP2;P2;SDS_P1;SDS_P2;PMS_P1;PMS_P2;Temp;Humidity;BMP_temperature;BMP_pressure;BME280_temperature;BME280_humidity;BME280_pressure;Samples;Min_cycle;Max_cycle;Signal;HPM_P1;HPM_P2
2022/02/09 00:05:00;;;;;;;6.63;4.30;;;;;;;1.05;75.99;96251.86;1721823;83;21032;-78
2022/02/09 00:07:28;;;;;;;8.67;4.20;;;;;;;1.11;75.61;96266.74;1720880;83;21080;-77
2022/02/09 00:09:48;;;;;;;7.87;3.73;;;;;;;1.11;76.19;96263.75;1720654;83;21013;-77
2022/02/09 00:12:21;;;;;;;6.67;3.50;;;;;;;1.08;76.49;96266.23;1721538;83;21041;-78
2022/02/09 00:15:00;;;;;;;6.60;3.63;;;;;;;1.10;76.17;96254.59;1721073;83;20993;-78
2022/02/09 00:17:40;;;;;;;7.73;3.97;;;;;;;1.14;75.62;96253.44;1719746;83;21040;-77
2022/02/09 00:23:11;;;;;;;5.30;3.30;;;;;;;1.15;75.41;96248.69;1721694;83;21087;-77
2022/02/09 00:28:32;;;;;;;9.43;3.77;;;;;;;1.22;75.10;96248.45;1721678;83;21506;-77
2022/02/09 00:36:10;;;;;;;7.80;3.63;;;;;;;1.25;75.01;96248.09;1721443;82;20993;-77
2022/02/09 00:41:11;;;;;;;9.67;4.57;;;;;;;1.35;74.36;96250.97;1721768;83;21004;-77
2022/02/09 00:44:18;;;;;;;10.30;4.53;;;;;;;1.40;74.08;96245.05;1717464;83;21359;-78
2022/02/09 01:56:39;;;;;;;4.73;2.60;;;;;;;1.62;76.61;96238.70;1721777;82;20977;-78
2022/02/09 01:59:06;;;;;;;4.67;3.00;;;;;;;1.63;76.83;96237.84;1721676;82;21020;-78
2022/02/09 02:01:34;;;;;;;5.23;3.20;;;;;;;1.63;76.55;96243.05;1721596;83;21523;-77
2022/02/09 02:04:01;;;;;;;5.00;2.83;;;;;;;1.65;76.35;96247.88;1721428;82;21067;-77
2022/02/09 02:06:27;;;;;;;5.27;3.07;;;;;;;1.70;76.26;96250.61;1721609;83;20992;-78
2022/02/09 02:08:54;;;;;;;3.70;2.80;;;;;;;1.77;76.04;96248.63;1721715;83;21017;-78
2022/02/09 02:11:33;;;;;;;5.17;2.70;;;;;;;1.78;76.02;96247.77;1721804;83;21013;-78
2022/02/09 02:14:18;;;;;;;5.43;3.23;;;;;;;1.75;75.91;96249.43;1721024;83;21013;-78
2022/02/09 02:16:40;;;;;;;3.90;3.10;;;;;;;1.79;75.75;96240.84;1719584;83;21045;-77
2022/02/09 02:19:24;;;;;;;3.23;2.10;;;;;;;1.81;75.84;96237.87;1721169;83;21005;-77
2022/02/09 02:43:20;;;;;;;7.57;4.20;;;;;;;1.81;75.87;96268.66;1721919;83;21040;-77
2022/02/09 03:14:02;;;;;;;3.42;2.70;;;;;;;1.89;77.26;96290.98;1667059;86;21046;-76
2022/02/09 03:16:51;;;;;;;4.20;2.97;;;;;;;1.89;77.50;96297.09;1696397;83;20983;-77
2022/02/09 03:21:46;;;;;;;5.93;3.93;;;;;;;1.82;77.07;96295.59;1709398;84;21050;-77
2022/02/09 03:24:12;;;;;;;4.90;2.70;;;;;;;1.74;78.38;96292.78;1708253;83;21042;-77
2022/02/09 03:26:55;;;;;;;6.23;3.70;;;;;;;1.72;77.89;96290.13;1708878;83;21038;-77
2022/02/09 03:43:00;;;;;;;6.23;4.10;;;;;;;1.91;77.67;96312.72;1709637;83;21069;-77
2022/02/09 03:50:41;;;;;;;12.07;5.53;;;;;;;1.88;78.73;96318.73;1709544;83;21031;-77
2022/02/09 03:58:19;;;;;;;7.83;4.70;;;;;;;2.06;78.13;96304.01;1709525;84;21492;-77
2022/02/09 04:00:47;;;;;;;11.37;4.80;;;;;;;2.05;78.09;96311.37;1709519;83;21007;-77
2022/02/09 04:03:20;;;;;;;7.40;4.97;;;;;;;2.03;78.15;96307.84;1708958;83;21038;-77
2022/02/09 04:05:46;;;;;;;8.07;5.60;;;;;;;1.94;78.21;96304.98;1740126;82;21507;-77
2022/02/09 04:08:16;;;;;;;16.73;9.20;;;;;;;1.89;78.33;96315.70;1709618;83;21019;-77
2022/02/09 04:10:48;;;;;;;10.50;3.90;;;;;;;1.88;78.15;96319.16;1709617;83;21035;-77
2022/02/09 04:13:37;;;;;;;7.70;5.40;;;;;;;1.88;78.69;96314.83;1708878;83;21560;-77
2022/02/09 04:16:05;;;;;;;8.80;4.80;;;;;;;1.87;79.05;96319.58;1738672;82;21047;-77
2022/02/09 04:37:54;;;;;;;10.77;7.63;;;;;;;2.01;79.20;96325.56;1709613;83;21001;-77
2022/02/09 04:40:16;;;;;;;4.43;3.37;;;;;;;2.05;78.95;96335.22;1707877;83;21034;-76
2022/02/09 04:43:11;;;;;;;8.30;3.20;;;;;;;2.07;79.03;96339.62;1709489;83;21033;-76
2022/02/09 04:45:42;;;;;;;4.87;3.20;;;;;;;2.10;78.98;96338.41;1736698;82;21031;-77
2022/02/09 04:48:30;;;;;;;4.73;3.50;;;;;;;2.13;78.76;96328.48;1699364;84;21042;-77
2022/02/09 04:50:40;;;;;;;8.07;6.30;;;;;;;2.17;78.80;96340.75;1704587;84;21007;-77
2022/02/09 04:55:52;;;;;;;5.40;4.20;;;;;;;2.11;78.67;96336.24;1706644;84;21059;-77
2022/02/09 05:01:09;;;;;;;18.82;15.20;;;;;;;2.16;78.38;96354.59;1706866;83;21031;-78
2022/02/09 05:22:47;;;;;;;5.37;3.30;;;;;;;2.15;79.46;96379.75;1706161;84;21035;-77
2022/02/09 05:28:13;;;;;;;41.03;17.13;;;;;;;2.27;80.06;96370.48;1706875;84;21529;-78
2022/02/09 05:30:29;;;;;;;21.77;10.87;;;;;;;2.30;79.86;96385.78;1713876;83;21552;-78
2022/02/09 05:32:55;;;;;;;8.53;4.57;;;;;;;2.31;79.86;96390.14;1701819;84;21015;-78
2022/02/09 05:35:22;;;;;;;8.07;5.20;;;;;;;2.35;79.60;96397.63;1706838;84;21019;-78
2022/02/09 05:37:55;;;;;;;7.13;4.20;;;;;;;2.39;79.46;96395.55;1706485;83;21062;-78
2022/02/09 05:40:22;;;;;;;4.53;3.45;;;;;;;2.38;79.21;96397.70;1707025;84;20979;-77
2022/02/09 05:42:49;;;;;;;8.73;5.00;;;;;;;2.33;79.23;96391.06;1706655;84;21535;-78
2022/02/09 05:45:17;;;;;;;40.33;25.27;;;;;;;2.33;79.39;96398.00;1706882;84;21062;-78
2022/02/09 05:50:30;;;;;;;23.03;14.40;;;;;;;2.37;79.79;96402.47;1694229;84;21062;-77
2022/02/09 05:55:36;;;;;;;15.13;9.07;;;;;;;2.40;79.68;96406.88;1716249;84;21033;-79
2022/02/09 05:57:52;;;;;;;9.33;6.10;;;;;;;2.43;79.61;96416.94;1713061;84;21501;-78
2022/02/09 06:00:18;;;;;;;5.50;4.13;;;;;;;2.44;79.23;96423.02;1716337;84;21037;-78
2022/02/09 06:02:45;;;;;;;9.43;7.20;;;;;;;2.43;79.13;96422.57;1716354;83;21017;-77
2022/02/09 06:05:14;;;;;;;10.20;6.90;;;;;;;2.42;79.50;96424.69;1716884;84;21021;-75
2022/02/09 06:07:41;;;;;;;7.27;5.83;;;;;;;2.41;79.25;96427.73;1716423;83;21057;-76
2022/02/09 06:10:16;;;;;;;10.43;6.67;;;;;;;2.43;78.96;96423.88;1716191;83;21036;-76
2022/02/09 06:12:46;;;;;;;6.00;3.93;;;;;;;2.40;79.26;96423.38;1714920;84;21379;-77
2022/02/09 06:20:20;;;;;;;7.77;4.97;;;;;;;2.44;79.32;96430.83;1715347;83;21032;-78
2022/02/09 06:22:47;;;;;;;10.00;4.40;;;;;;;2.42;79.31;96434.72;1715533;83;21162;-80
2022/02/09 06:25:13;;;;;;;5.63;3.77;;;;;;;2.44;79.13;96434.31;1715658;84;21028;-76
2022/02/09 06:27:40;;;;;;;5.00;3.63;;;;;;;2.50;79.29;96444.03;1715616;83;21063;-82
2022/02/09 06:30:09;;;;;;;4.87;4.10;;;;;;;2.48;78.87;96446.59;1716190;84;21056;-80
2022/02/09 06:32:36;;;;;;;10.10;4.83;;;;;;;2.49;79.09;96452.67;1715611;84;21005;-81
2022/02/09 06:35:02;;;;;;;9.43;5.17;;;;;;;2.54;79.34;96455.84;1716262;83;21033;-77
2022/02/09 06:37:40;;;;;;;7.57;5.10;;;;;;;2.58;79.34;96454.22;1716017;84;21007;-79
2022/02/09 06:40:06;;;;;;;7.47;4.77;;;;;;;2.62;79.48;96460.38;1715874;84;21037;-76
2022/02/09 06:42:34;;;;;;;10.00;6.63;;;;;;;2.59;79.03;96461.19;1715830;83;21033;-74
2022/02/09 06:45:11;;;;;;;22.57;14.60;;;;;;;2.55;79.51;96456.33;1716165;83;21044;-81
2022/02/09 06:47:30;;;;;;;17.07;10.60;;;;;;;2.61;79.56;96467.33;1716934;83;21044;-72
2022/02/09 06:50:04;;;;;;;14.00;9.47;;;;;;;2.71;79.81;96473.23;1721098;83;21049;-77
2022/02/09 06:52:28;;;;;;;26.07;16.90;;;;;;;2.70;79.23;96480.60;1720333;83;21079;-78
2022/02/09 06:58:00;;;;;;;25.50;13.50;;;;;;;2.65;79.20;96487.42;1721346;83;21065;-76
2022/02/09 07:00:18;;;;;;;14.33;10.40;;;;;;;2.68;79.31;96500.95;1718222;83;21076;-83
2022/02/09 07:02:45;;;;;;;14.93;7.93;;;;;;;2.63;79.03;96503.42;1721176;83;21088;-76
2022/02/09 07:05:12;;;;;;;12.90;6.80;;;;;;;2.68;79.39;96513.55;1720293;83;21067;-85
2022/02/09 07:07:39;;;;;;;8.17;5.27;;;;;;;2.62;79.02;96508.58;1720928;83;21100;-73
2022/02/09 07:10:07;;;;;;;10.93;6.10;;;;;;;2.53;78.89;96516.63;1721200;83;21079;-76
2022/02/09 07:12:34;;;;;;;10.07;7.00;;;;;;;2.51;79.16;96522.20;1720705;83;21092;-75
2022/02/09 07:15:02;;;;;;;20.07;11.40;;;;;;;2.50;79.68;96523.06;1721012;83;21490;-77
2022/02/09 07:17:28;;;;;;;14.53;9.50;;;;;;;2.52;79.49;96522.69;1720050;83;21072;-75
2022/02/09 07:20:06;;;;;;;10.53;7.37;;;;;;;2.54;79.75;96525.31;1720602;83;21122;-76
2022/02/09 07:22:26;;;;;;;8.20;4.43;;;;;;;2.58;79.51;96541.08;1718654;83;21107;-73
2022/02/09 07:25:04;;;;;;;12.63;7.00;;;;;;;2.65;79.54;96542.56;1720733;83;21092;-76
2022/02/09 07:27:27;;;;;;;7.23;4.30;;;;;;;2.75;79.86;96534.16;1718762;83;21581;-76
2022/02/09 07:29:52;;;;;;;13.63;8.03;;;;;;;2.89;79.54;96534.50;1721290;83;21051;-76
2022/02/09 07:32:21;;;;;;;10.43;6.93;;;;;;;3.04;79.30;96544.89;1721247;83;21025;-75
2022/02/09 07:34:48;;;;;;;16.63;7.93;;;;;;;3.14;79.00;96551.66;1721040;83;21112;-77
2022/02/09 07:37:14;;;;;;;10.93;7.03;;;;;;;3.20;78.70;96557.02;1720964;83;21046;-77
2022/02/09 07:39:41;;;;;;;20.00;10.70;;;;;;;3.26;78.67;96555.89;1721012;83;21155;-77
2022/02/09 07:42:11;;;;;;;16.13;9.67;;;;;;;3.33;78.69;96554.32;1721261;83;21047;-77
2022/02/09 07:44:57;;;;;;;11.83;7.17;;;;;;;3.35;78.21;96561.73;1720642;83;21091;-76
2022/02/09 07:50:15;;;;;;;13.83;7.87;;;;;;;3.47;78.70;96562.05;1714914;83;21072;-75
2022/02/09 07:52:23;;;;;;;13.50;7.10;;;;;;;3.63;78.49;96551.58;1709542;84;21100;-75
2022/02/09 07:54:50;;;;;;;10.07;5.53;;;;;;;3.80;78.25;96551.94;1715277;84;21587;-71
2022/02/09 07:57:17;;;;;;;15.03;8.63;;;;;;;4.01;78.64;96555.48;1715453;83;21024;-70
2022/02/09 07:59:43;;;;;;;14.77;9.10;;;;;;;4.15;78.16;96551.42;1715518;83;21088;-72
2022/02/09 08:02:11;;;;;;;11.63;6.40;;;;;;;4.22;77.27;96544.17;1714991;83;21103;-81
2022/02/09 08:04:38;;;;;;;6.63;3.80;;;;;;;4.29;77.21;96547.38;1714691;83;21075;-75
2022/02/09 08:07:04;;;;;;;9.23;4.87;;;;;;;4.43;76.53;96549.39;1714955;83;21044;-76
2022/02/09 08:09:36;;;;;;;10.93;5.60;;;;;;;4.49;76.29;96556.06;1715452;83;21052;-84
2022/02/09 08:20:28;;;;;;;8.20;5.63;;;;;;;4.49;76.14;96559.55;1715372;83;21096;-81
2022/02/09 08:33:21;;;;;;;12.37;8.63;;;;;;;4.57;75.79;96547.95;1715286;83;21609;-72
2022/02/09 08:35:52;;;;;;;10.07;6.60;;;;;;;4.61;75.74;96569.78;1715452;83;21029;-79
2022/02/09 08:38:18;;;;;;;11.17;6.10;;;;;;;4.65;75.38;96562.05;1714471;83;21079;-73
2022/02/09 08:40:47;;;;;;;12.00;8.57;;;;;;;4.67;75.15;96562.09;1716214;84;21012;-74
2022/02/09 08:43:14;;;;;;;2.70;1.80;;;;;;;4.69;75.22;96571.72;1716202;83;21016;-71
2022/02/09 08:45:42;;;;;;;4.73;3.53;;;;;;;4.68;72.80;96571.25;1715991;84;21044;-72
2022/02/09 08:48:10;;;;;;;17.43;12.30;;;;;;;4.80;73.92;96571.05;1716219;83;21526;-73
2022/02/09 08:50:37;;;;;;;4.00;3.03;;;;;;;4.92;73.92;96565.63;1684869;84;21037;-71
2022/02/09 08:53:04;;;;;;;12.10;7.90;;;;;;;4.91;69.88;96575.64;1714799;84;21593;-75
2022/02/09 08:55:34;;;;;;;19.10;13.03;;;;;;;4.97;71.67;96577.48;1716017;83;21080;-76
2022/02/09 08:58:02;;;;;;;2.87;2.47;;;;;;;5.03;72.11;96580.20;1715523;83;21561;-82
2022/02/09 09:00:33;;;;;;;1.23;0.93;;;;;;;4.98;70.37;96578.80;1715878;84;21075;-81
2022/02/09 09:03:16;;;;;;;1.27;0.70;;;;;;;5.08;70.30;96589.45;1715509;84;21068;-77
2022/02/09 09:05:50;;;;;;;1.90;1.00;;;;;;;5.17;70.53;96583.09;1714022;84;21550;-75
2022/02/09 09:17:05;;;;;;;2.07;1.10;;;;;;;5.66;68.32;96583.05;1716203;83;21021;-79
2022/02/09 10:00:53;;;;;;;1.90;0.80;;;;;;;5.88;63.39;96585.59;1714511;84;21556;-76
2022/02/09 10:30:53;;;;;;;9.37;3.90;;;;;;;5.50;62.38;96606.78;1719102;83;21057;-72
2022/02/09 10:33:10;;;;;;;4.63;2.27;;;;;;;5.60;63.92;96599.54;1716582;82;21106;-73
2022/02/09 10:35:43;;;;;;;5.13;3.47;;;;;;;5.72;62.55;96603.67;1735231;82;22119;-72
2022/02/09 10:38:28;;;;;;;3.30;1.50;;;;;;;5.84;62.76;96614.75;1734371;82;21103;-71
2022/02/09 10:40:55;;;;;;;3.20;1.83;;;;;;;5.88;61.95;96610.03;1735789;82;21472;-70
2022/02/09 10:43:32;;;;;;;3.93;2.00;;;;;;;5.98;62.42;96606.73;1735901;82;21570;-70
2022/02/09 10:46:13;;;;;;;2.17;1.43;;;;;;;5.99;62.07;96613.72;1735936;82;20975;-70
2022/02/09 10:48:55;;;;;;;5.07;2.70;;;;;;;5.97;62.20;96604.98;1736461;82;21012;-71
2022/02/09 10:54:25;;;;;;;5.03;2.40;;;;;;;6.09;62.09;96608.63;1735534;82;21607;-72
2022/02/09 10:56:57;;;;;;;3.70;2.40;;;;;;;6.13;62.63;96602.16;1732661;82;21085;-70
2022/02/09 10:59:28;;;;;;;3.35;2.12;;;;;;;6.14;62.29;96605.22;1699871;84;21096;-70
2022/02/09 11:02:00;;;;;;;3.27;1.87;;;;;;;6.05;60.09;96601.17;1699865;84;21128;-70
2022/02/09 11:04:29;;;;;;;4.73;2.33;;;;;;;6.11;61.01;96598.62;1699999;84;21579;-71
2022/02/09 11:06:56;;;;;;;2.43;1.47;;;;;;;6.30;62.04;96589.30;1699794;84;21076;-70
2022/02/09 11:09:23;;;;;;;2.70;2.00;;;;;;;6.46;60.63;96590.38;1700110;84;21012;-70
2022/02/09 11:11:51;;;;;;;5.13;1.70;;;;;;;6.58;59.76;96583.12;1700057;84;21033;-71
2022/02/09 11:14:24;;;;;;;2.33;1.80;;;;;;;6.71;59.77;96581.09;1700041;84;21052;-71
2022/02/09 11:17:01;;;;;;;2.70;1.90;;;;;;;6.80;58.44;96577.69;1700119;84;21029;-70
2022/02/09 11:19:36;;;;;;;3.70;2.20;;;;;;;7.01;59.91;96577.07;1700240;84;21012;-71
2022/02/09 11:22:12;;;;;;;2.30;1.23;;;;;;;7.34;59.13;96580.47;1699693;84;21548;-71
2022/02/09 11:24:46;;;;;;;2.57;1.37;;;;;;;7.43;57.86;96570.03;1700030;84;21028;-71
2022/02/09 11:27:30;;;;;;;3.17;2.13;;;;;;;7.72;57.25;96566.80;1700162;84;21510;-70
2022/02/09 11:30:22;;;;;;;8.37;4.37;;;;;;;7.72;57.25;96566.80;1699010;84;21573;-71
2022/02/09 11:33:12;;;;;;;6.53;2.10;;;;;;;7.82;56.31;96566.00;1698519;84;21044;-71
2022/02/09 11:35:40;;;;;;;3.93;2.20;;;;;;;7.95;56.27;96571.79;1698297;84;21020;-70
2022/02/09 11:40:58;;;;;;;9.10;4.93;;;;;;;7.78;56.79;96559.83;1699567;84;21526;-71
2022/02/09 11:43:45;;;;;;;6.37;3.80;;;;;;;7.80;56.20;96566.42;1698024;84;21072;-71
2022/02/09 12:11:38;;;;;;;3.07;1.90;;;;;;;8.28;57.25;96558.86;1692635;85;21017;-72
2022/02/09 12:17:01;;;;;;;2.22;1.50;;;;;;;8.74;54.70;96549.91;1692409;84;21064;-71
2022/02/09 12:19:33;;;;;;;4.60;1.98;;;;;;;9.09;54.96;96548.70;1689692;85;21164;-72
2022/02/09 12:22:15;;;;;;;2.37;1.72;;;;;;;9.24;54.29;96538.20;1691538;85;21045;-71
2022/02/09 12:24:35;;;;;;;2.25;1.65;;;;;;;9.63;53.76;96533.86;1690659;85;21020;-72
2022/02/09 12:27:12;;;;;;;4.10;2.95;;;;;;;10.16;52.09;96528.98;1692602;84;21491;-71
2022/02/09 12:29:43;;;;;;;5.90;3.08;;;;;;;10.18;50.96;96535.58;1692557;85;21021;-72
2022/02/09 12:32:27;;;;;;;3.95;2.00;;;;;;;10.69;52.98;96529.73;1692379;84;21116;-71
2022/02/09 12:35:00;;;;;;;3.65;2.40;;;;;;;11.00;50.97;96525.17;1691576;85;21108;-72
2022/02/09 12:37:30;;;;;;;3.83;3.00;;;;;;;11.33;50.32;96530.27;1692299;85;21531;-73
2022/02/09 12:40:08;;;;;;;3.80;2.42;;;;;;;12.36;48.70;96523.69;1692459;85;21037;-74
2022/02/09 12:42:45;;;;;;;5.00;2.37;;;;;;;12.81;46.25;96517.43;1692473;84;21056;-74
2022/02/09 12:45:24;;;;;;;3.98;2.30;;;;;;;13.30;46.03;96503.98;1692345;85;21057;-74
2022/02/09 12:47:54;;;;;;;3.15;2.10;;;;;;;13.20;44.08;96532.36;1692742;84;21036;-75
2022/02/09 12:50:30;;;;;;;6.30;4.53;;;;;;;13.28;43.31;96514.63;1699883;84;21095;-73
2022/02/09 12:52:56;;;;;;;3.33;2.10;;;;;;;13.07;43.46;96520.19;1699968;84;21016;-74
2022/02/09 12:55:29;;;;;;;2.47;1.70;;;;;;;12.90;44.60;96519.98;1700106;84;21049;-74
2022/02/09 12:57:58;;;;;;;;;;;;;;;12.82;43.97;96519.63;1702547;84;21013;-74
2022/02/09 13:00:38;;;;;;;4.53;2.90;;;;;;;12.79;43.70;96513.92;1699934;84;20103;-74
2022/02/09 13:03:11;;;;;;;5.15;3.25;;;;;;;12.75;43.12;96518.81;1700074;84;21080;-74
2022/02/09 13:05:56;;;;;;;4.72;3.17;;;;;;;12.45;46.01;96519.63;1699404;84;21012;-73
2022/02/09 13:08:27;;;;;;;5.28;3.20;;;;;;;12.34;47.60;96517.53;1699905;84;21047;-72
2022/02/09 13:11:19;;;;;;;4.53;3.20;;;;;;;12.25;47.09;96515.87;1699923;84;20992;-73
2022/02/09 13:13:46;;;;;;;4.78;2.83;;;;;;;12.52;48.71;96516.44;1699426;84;21021;-73
2022/02/09 13:16:40;;;;;;;3.95;2.80;;;;;;;12.52;48.71;96516.44;1700006;84;21008;-74
2022/02/09 14:12:39;;;;;;;3.83;1.65;;;;;;;10.29;51.21;96543.05;1712396;84;21047;-72
2022/02/09 14:53:13;;;;;;;2.87;1.80;;;;;;;5.49;63.87;96570.98;1699884;84;21012;-72
2022/02/09 14:55:47;;;;;;;2.17;1.63;;;;;;;5.25;64.38;96571.45;1697999;84;21025;-71
2022/02/09 14:58:09;;;;;;;3.07;1.77;;;;;;;4.93;66.72;96567.81;1697000;84;21045;-71
2022/02/09 15:00:41;;;;;;;4.30;1.83;;;;;;;4.53;68.31;96576.16;1699911;84;21009;-71
2022/02/09 15:03:20;;;;;;;2.07;1.67;;;;;;;4.31;67.61;96578.34;1699850;84;21482;-71
2022/02/09 15:08:25;;;;;;;7.33;4.17;;;;;;;3.85;69.46;96589.05;1699869;84;21514;-71
2022/02/09 15:11:02;;;;;;;6.23;3.43;;;;;;;3.84;68.67;96587.73;1699111;84;21475;-71
2022/02/09 15:13:30;;;;;;;5.33;3.40;;;;;;;3.82;69.18;96579.84;1697174;84;21522;-72
2022/02/09 15:16:02;;;;;;;4.10;2.90;;;;;;;3.83;69.36;96581.63;1698504;84;21033;-72
2022/02/09 15:21:25;;;;;;;5.27;2.90;;;;;;;3.82;69.13;96587.68;1700056;84;21068;-72
2022/02/09 15:23:46;;;;;;;3.90;3.10;;;;;;;3.77;69.84;96582.77;1698463;84;21064;-72
2022/02/09 15:26:13;;;;;;;4.17;2.80;;;;;;;3.81;69.39;96582.44;1700278;84;21076;-72
2022/02/09 15:28:40;;;;;;;3.20;2.20;;;;;;;3.86;69.59;96585.61;1699908;84;21553;-72
2022/02/09 15:31:15;;;;;;;3.60;2.53;;;;;;;3.82;69.06;96585.50;1700064;84;21502;-72
2022/02/09 15:33:46;;;;;;;4.37;2.60;;;;;;;3.75;70.81;96602.73;1698303;84;21036;-72
2022/02/09 15:36:10;;;;;;;6.27;3.10;;;;;;;3.64;72.15;96595.95;1698554;84;21061;-71
2022/02/09 15:38:45;;;;;;;2.77;2.00;;;;;;;3.66;70.79;96598.62;1699619;84;21056;-72
2022/02/09 15:41:17;;;;;;;5.27;3.00;;;;;;;3.59;71.52;96597.58;1697915;84;21052;-72
2022/02/09 15:57:25;;;;;;;3.27;2.00;;;;;;;3.46;70.77;96591.60;1700074;84;21029;-72
2022/02/09 16:23:39;;;;;;;5.90;2.60;;;;;;;2.73;74.03;96625.73;1699943;84;21080;-72
2022/02/09 16:34:07;;;;;;;2.87;2.10;;;;;;;2.56;74.32;96607.88;1699951;84;21044;-73
2022/02/09 16:44:20;;;;;;;2.70;1.67;;;;;;;2.43;74.96;96629.64;1699654;84;21554;-73
2022/02/09 16:46:53;;;;;;;2.30;1.50;;;;;;;2.44;74.65;96630.97;1699926;84;21498;-73
2022/02/09 16:49:50;;;;;;;76.90;28.70;;;;;;;2.36;74.23;96624.66;1699623;84;21048;-73
2022/02/09 16:51:53;;;;;;;101.33;40.53;;;;;;;2.11;75.55;96633.02;1687239;84;21079;-73
2022/02/09 17:21:16;;;;;;;2.47;1.52;;;;;;;1.18;77.91;96650.38;1700157;84;21080;-73
2022/02/09 17:23:44;;;;;;;2.50;1.40;;;;;;;1.17;77.90;96656.41;1699767;84;21028;-73
2022/02/09 17:26:12;;;;;;;2.17;1.33;;;;;;;1.14;77.35;96650.24;1699998;84;21028;-73
2022/02/09 17:28:43;;;;;;;2.93;1.70;;;;;;;1.11;77.74;96653.62;1699866;84;21570;-74
2022/02/09 17:31:22;;;;;;;4.57;2.57;;;;;;;1.17;78.62;96657.72;1699231;84;21112;-74
2022/02/09 17:38:56;;;;;;;2.40;2.10;;;;;;;0.99;78.67;96660.98;1679294;84;21533;-75
2022/02/09 17:57:49;;;;;;;3.00;2.33;;;;;;;0.71;79.44;96672.09;1699893;84;21458;-74
2022/02/09 18:00:16;;;;;;;9.80;4.90;;;;;;;0.67;79.13;96680.59;1698828;84;21051;-74
2022/02/09 18:02:54;;;;;;;14.30;7.70;;;;;;;0.68;80.14;96685.86;1699887;84;21040;-74
2022/02/09 18:05:43;;;;;;;7.93;3.70;;;;;;;0.70;80.85;96685.48;1699988;84;21048;-73
2022/02/09 18:08:08;;;;;;;3.77;2.27;;;;;;;0.60;80.43;96684.24;1697449;84;21024;-73
2022/02/09 18:31:42;;;;;;;3.17;1.97;;;;;;;0.31;80.31;96701.34;1699864;84;21036;-74
2022/02/09 18:34:22;;;;;;;6.30;3.07;;;;;;;0.32;80.33;96700.49;1699310;84;21052;-74
2022/02/09 18:45:00;;;;;;;3.13;1.40;;;;;;;0.10;81.15;96699.19;1699922;84;21058;-74
2022/02/09 19:01:21;;;;;;;1.40;1.30;;;;;;;0.10;81.79;96694.91;1698024;84;20997;-74
2022/02/09 19:03:39;;;;;;;3.73;1.60;;;;;;;0.17;81.75;96694.71;1695318;84;21036;-74
2022/02/09 19:06:19;;;;;;;1.80;1.50;;;;;;;0.16;81.40;96693.83;1697497;84;21025;-74
2022/02/09 19:14:26;;;;;;;2.67;1.67;;;;;;;0.10;81.55;96686.20;1698078;84;21478;-74
2022/02/09 19:33:09;;;;;;;5.80;3.30;;;;;;;-0.07;81.20;96698.12;1698017;84;20972;-74
2022/02/09 19:48:22;;;;;;;4.43;2.80;;;;;;;-0.19;82.15;96692.44;1698202;84;21020;-74
2022/02/09 19:53:37;;;;;;;8.00;4.43;;;;;;;-0.21;82.12;96704.45;1699620;84;21079;-73
2022/02/09 19:55:55;;;;;;;5.73;3.43;;;;;;;-0.29;82.05;96694.19;1696677;84;21048;-74
2022/02/09 19:58:21;;;;;;;8.03;4.70;;;;;;;-0.33;81.88;96689.68;1699624;84;21136;-74
2022/02/09 20:00:48;;;;;;;16.37;7.80;;;;;;;-0.33;82.81;96685.41;1700125;84;21033;-75
2022/02/09 20:03:16;;;;;;;10.57;6.30;;;;;;;-0.30;83.06;96688.53;1699670;84;21040;-74
2022/02/09 20:05:42;;;;;;;19.97;10.30;;;;;;;-0.35;83.06;96690.02;1699932;84;20977;-74
2022/02/09 20:08:09;;;;;;;35.23;20.87;;;;;;;-0.35;83.48;96680.95;1699849;84;21506;-75
2022/02/09 20:10:36;;;;;;;30.57;17.03;;;;;;;-0.35;83.56;96675.77;1699966;84;20977;-75
2022/02/09 20:13:02;;;;;;;26.77;14.47;;;;;;;-0.34;83.43;96682.73;1699913;84;21037;-75
2022/02/09 20:15:29;;;;;;;26.13;15.37;;;;;;;-0.41;82.97;96676.83;1699907;84;21039;-74
2022/02/09 20:17:56;;;;;;;28.90;14.13;;;;;;;-0.49;82.79;96680.40;1700038;84;21029;-75
2022/02/09 20:20:26;;;;;;;22.83;12.80;;;;;;;-0.45;82.94;96672.81;1699900;84;21021;-75
2022/02/09 20:22:53;;;;;;;23.33;12.50;;;;;;;-0.46;82.90;96672.73;1699976;84;21041;-75
2022/02/09 20:25:21;;;;;;;17.13;11.33;;;;;;;-0.45;83.20;96676.70;1699813;84;21079;-75
2022/02/09 20:27:52;;;;;;;20.47;11.63;;;;;;;-0.49;82.78;96670.91;1699947;84;21551;-75
2022/02/09 20:30:21;;;;;;;22.87;13.27;;;;;;;-0.53;83.42;96666.44;1700016;84;21036;-76
2022/02/09 20:32:52;;;;;;;22.27;12.80;;;;;;;-0.60;82.56;96674.78;1699971;84;21080;-75
2022/02/09 20:35:17;;;;;;;16.17;9.53;;;;;;;-0.59;82.99;96676.53;1699361;84;21024;-76
2022/02/09 20:37:48;;;;;;;19.00;10.10;;;;;;;-0.58;83.87;96667.05;1699922;84;21032;-75
2022/02/09 20:40:32;;;;;;;16.37;9.53;;;;;;;-0.61;83.22;96668.22;1699664;84;21036;-75
2022/02/09 20:42:56;;;;;;;13.10;8.37;;;;;;;-0.52;83.48;96665.60;1698600;84;21483;-75
2022/02/09 20:45:31;;;;;;;18.30;10.57;;;;;;;-0.47;83.68;96661.49;1699703;84;21068;-75
2022/02/09 20:48:04;;;;;;;11.63;7.75;;;;;;;-0.55;83.20;96660.30;1699682;84;21550;-75
2022/02/09 20:50:24;;;;;;;11.50;7.23;;;;;;;-0.52;83.41;96655.23;1698064;83;21016;-75
2022/02/09 20:52:50;;;;;;;13.53;7.53;;;;;;;-0.47;83.37;96661.49;1698022;84;21028;-75
2022/02/09 20:55:17;;;;;;;14.47;7.67;;;;;;;-0.52;83.06;96669.49;1697777;84;21028;-75
2022/02/09 20:57:44;;;;;;;36.40;19.57;;;;;;;-0.56;83.26;96665.41;1698104;84;21463;-75
2022/02/09 21:00:19;;;;;;;45.07;24.20;;;;;;;-0.58;83.45;96659.27;1698154;84;21060;-75
2022/02/09 21:02:53;;;;;;;96.80;48.73;;;;;;;-0.66;83.60;96658.95;1697120;84;21044;-75
2022/02/09 21:05:38;;;;;;;88.47;41.80;;;;;;;-0.64;83.22;96665.09;1696233;84;21032;-75
2022/02/09 21:08:11;;;;;;;11.28;7.67;;;;;;;-0.70;82.76;96657.08;1696396;84;21021;-76
2022/02/09 21:10:44;;;;;;;23.07;12.70;;;;;;;-0.66;83.08;96658.95;1694574;84;21051;-75
2022/02/09 21:13:02;;;;;;;38.80;21.33;;;;;;;-0.60;83.25;96657.05;1695288;84;21028;-76
2022/02/09 21:15:53;;;;;;;34.17;18.23;;;;;;;-0.56;83.36;96658.92;1697839;84;21040;-76
2022/02/09 21:18:28;;;;;;;28.20;16.33;;;;;;;-0.62;83.20;96662.58;1695491;84;20996;-76
2022/02/09 21:23:38;;;;;;;9.60;5.70;;;;;;;-0.66;83.12;96658.95;1686303;84;21079;-76
2022/02/09 21:29:35;;;;;;;8.47;6.10;;;;;;;-0.58;83.12;96655.37;1697953;84;21044;-75
2022/02/09 21:42:53;;;;;;;8.77;5.00;;;;;;;-0.64;83.12;96666.39;1698010;84;21001;-76
2022/02/09 21:54:55;;;;;;;33.77;17.90;;;;;;;-0.63;84.09;96673.36;1699802;84;21105;-75
2022/02/09 22:16:30;;;;;;;5.73;4.10;;;;;;;-0.75;83.21;96668.95;1699957;84;21530;-75
2022/02/09 22:27:19;;;;;;;13.43;7.10;;;;;;;-0.87;83.22;96672.78;1699880;84;21124;-75
2022/02/09 22:54:23;;;;;;;59.00;30.60;;;;;;;-1.25;85.49;96662.48;1700065;84;21023;-76
2022/02/09 22:56:10;;;;;;;17.90;10.57;;;;;;;-1.11;85.20;96658.77;1699954;84;20996;-76
2022/02/09 22:58:37;;;;;;;21.90;11.10;;;;;;;-0.97;85.37;96648.59;1700056;84;21020;-76
2022/02/09 23:01:10;;;;;;;52.13;27.73;;;;;;;-0.84;85.80;96651.30;1699975;84;21041;-76
2022/02/09 23:03:48;;;;;;;67.30;34.57;;;;;;;-0.81;85.21;96646.23;1699155;84;21135;-76
2022/02/09 23:06:23;;;;;;;51.00;27.50;;;;;;;-0.82;84.67;96644.48;1697976;84;21514;-76
2022/02/09 23:11:38;;;;;;;29.67;18.30;;;;;;;-0.83;84.71;96643.11;1699939;84;20993;-76
2022/02/09 23:14:01;;;;;;;30.33;17.87;;;;;;;-0.85;84.30;96639.59;1695660;84;21056;-76
2022/02/09 23:27:37;;;;;;;130.77;65.10;;;;;;;-1.07;84.54;96636.08;1670547;84;21009;-76
